logo
Search for airport 
image banner adimage banner adimage banner ad
image banner ad

BIAR - Akureyri

Located in Akureyri, Iceland

ICAO - BIAR, IATA - AEY

Data provided by Airmate  

General information

Coordinates: N65°39'24" W18°4'19"
Elevation is 7 feet MSL.
 
View others Airports in Northeast

Operational data

Special qualification required
Current time UTC:
Current local time:
Weather
METAR: BIAR 152200Z 02010KT 9999 -SN SCT030 BKN050 M00/M05 Q1018
TAF: TAF BIAR 151940Z 1521/1621 36008KT 9999 BKN030 TX02/1615Z TNM04/1606Z TEMPO 1521/1606 2500 -SHSN BKN010 TEMPO 1521/1600 34020G32KT
View NOTAMs / SUP AIP / TFR affecting this airport [VIEW]
Communications frequencies: [VIEW]

Runways:

RWY identifierQFULength (ft)Width (ft)SurfaceLDA (ft)
01356°7874148ASPH
19176°7874148ASPH

Airport contact information

Address: Akureyri Iceland

Satellite view of BIAR